createdAt,value
2018-10-06T00:00:24.006Z,72.30
2018-10-06T00:02:57.156Z,71.50
2018-10-06T00:05:29.233Z,71.80
2018-10-06T00:07:59.826Z,71.70
2018-10-06T00:10:30.256Z,71.80
2018-10-06T00:13:01.046Z,71.60
2018-10-06T00:15:31.306Z,71.80
2018-10-06T00:18:01.857Z,71.90
2018-10-06T00:20:32.396Z,71.90
2018-10-06T00:23:06.106Z,71.90
2018-10-06T00:25:36.986Z,71.90
2018-10-06T00:28:08.567Z,72.00
2018-10-06T00:30:38.696Z,72.00
2018-10-06T00:33:11.086Z,72.00
2018-10-06T00:35:41.157Z,72.00
2018-10-06T00:38:13.017Z,72.40
2018-10-06T00:40:45.486Z,72.30
2018-10-06T00:43:18.796Z,72.60
2018-10-06T00:45:50.129Z,72.50
2018-10-06T00:48:20.231Z,72.70
2018-10-06T00:50:51.659Z,72.60
2018-10-06T00:53:23.181Z,72.60
2018-10-06T00:55:59.191Z,72.60
2018-10-06T00:58:30.699Z,72.50
2018-10-06T01:01:00.888Z,72.60
2018-10-06T01:03:38.466Z,72.40
2018-10-06T01:06:10.107Z,72.30
2018-10-06T01:08:40.468Z,72.50
2018-10-06T01:11:11.787Z,72.40
2018-10-06T01:13:50.707Z,72.50
2018-10-06T01:16:22.047Z,72.50
2018-10-06T01:18:53.527Z,72.10
2018-10-06T01:21:24.837Z,71.80
2018-10-06T01:23:56.578Z,71.60
2018-10-06T01:26:35.607Z,71.30
2018-10-06T01:29:06.108Z,71.30
2018-10-06T01:31:37.846Z,71.70
2018-10-06T01:34:17.693Z,71.60
2018-10-06T01:36:49.904Z,71.60
2018-10-06T01:39:22.023Z,71.70
2018-10-06T01:41:53.756Z,71.80
2018-10-06T01:44:23.880Z,71.70
2018-10-06T01:46:55.399Z,71.70
2018-10-06T01:49:27.210Z,71.70
2018-10-06T01:51:58.526Z,71.70
2018-10-06T01:54:37.412Z,71.80
2018-10-06T01:57:08.923Z,72.00
2018-10-06T01:59:40.993Z,71.90
2018-10-06T02:02:10.883Z,72.10
2018-10-06T02:04:42.123Z,72.10
2018-10-06T02:07:20.894Z,72.30
2018-10-06T02:09:52.263Z,72.10
2018-10-06T02:12:23.324Z,72.00
2018-10-06T02:14:54.790Z,72.30
2018-10-06T02:17:26.244Z,72.50
2018-10-06T02:19:57.924Z,72.20
2018-10-06T02:22:29.484Z,72.10
2018-10-06T02:24:59.593Z,72.10
2018-10-06T02:27:31.174Z,72.10
2018-10-06T02:30:10.123Z,71.80
2018-10-06T02:32:41.592Z,72.20
2018-10-06T02:35:11.902Z,72.20
2018-10-06T02:37:49.383Z,71.90
2018-10-06T02:40:20.958Z,72.10
2018-10-06T02:42:52.243Z,71.90
2018-10-06T02:45:27.863Z,72.00
2018-10-06T02:48:05.354Z,72.00
2018-10-06T02:50:37.055Z,72.30
2018-10-06T02:53:08.364Z,71.50
2018-10-06T02:55:40.273Z,71.90
2018-10-06T02:58:12.132Z,72.00
2018-10-06T03:00:42.156Z,71.80
2018-10-06T03:03:12.141Z,72.00
2018-10-06T03:05:44.130Z,71.90
2018-10-06T03:08:14.216Z,71.70
2018-10-06T03:10:45.109Z,71.70
2018-10-06T03:13:16.865Z,71.80
2018-10-06T03:15:48.554Z,72.00
2018-10-06T03:18:26.384Z,72.20
2018-10-06T03:21:02.917Z,71.90
2018-10-06T03:23:42.117Z,72.00
2018-10-06T03:26:21.374Z,72.20
2018-10-06T03:28:53.765Z,72.20
2018-10-06T03:31:25.253Z,72.00
2018-10-06T03:33:56.865Z,71.60
2018-10-06T03:36:28.204Z,72.10
2018-10-06T03:38:59.488Z,71.80
2018-10-06T03:41:38.870Z,71.60
2018-10-06T03:44:10.172Z,71.30
2018-10-06T03:46:41.890Z,71.30
2018-10-06T03:49:16.600Z,71.20
2018-10-06T03:51:55.672Z,71.00
2018-10-06T03:54:25.460Z,71.80
2018-10-06T03:57:04.562Z,71.90
2018-10-06T03:59:36.482Z,72.10
2018-10-06T04:02:08.062Z,72.30
2018-10-06T04:04:39.202Z,72.20
2018-10-06T04:07:10.751Z,72.00
2018-10-06T04:09:42.391Z,71.80
2018-10-06T04:12:13.823Z,72.10
2018-10-06T04:14:52.960Z,71.90
2018-10-06T04:17:25.018Z,71.90
2018-10-06T04:19:56.629Z,71.90
2018-10-06T04:22:26.523Z,72.00
2018-10-06T04:24:58.901Z,71.90
2018-10-06T04:27:30.522Z,71.90
2018-10-06T04:30:02.411Z,71.90
2018-10-06T04:32:33.091Z,71.90
2018-10-06T04:35:04.801Z,72.20
2018-10-06T04:37:43.820Z,72.20
2018-10-06T04:40:17.200Z,72.10
2018-10-06T04:42:49.972Z,72.30
2018-10-06T04:45:21.660Z,72.40
2018-10-06T04:47:53.419Z,72.30
2018-10-06T04:50:24.800Z,72.50
2018-10-06T04:52:57.316Z,72.30
2018-10-06T04:55:36.155Z,72.30
2018-10-06T04:58:08.004Z,72.60
2018-10-06T05:00:39.314Z,72.50
2018-10-06T05:03:10.787Z,72.40
2018-10-06T05:05:42.575Z,72.30
2018-10-06T05:08:21.808Z,72.40
2018-10-06T05:10:53.482Z,72.40
2018-10-06T05:13:24.929Z,72.30
2018-10-06T05:16:04.528Z,72.60
2018-10-06T05:18:44.091Z,72.60
2018-10-06T05:21:15.780Z,72.20
2018-10-06T05:23:46.989Z,72.20
2018-10-06T05:26:18.609Z,72.20
2018-10-06T05:28:50.317Z,71.80
2018-10-06T05:31:29.714Z,71.60
2018-10-06T05:34:09.689Z,72.20
2018-10-06T05:36:41.708Z,72.60
2018-10-06T05:39:13.347Z,72.70
2018-10-06T05:41:47.438Z,72.90
2018-10-06T05:44:17.397Z,72.90
2018-10-06T05:46:49.204Z,73.20
2018-10-06T05:49:21.319Z,73.20
2018-10-06T05:51:52.715Z,73.20
2018-10-06T05:54:31.232Z,73.20
2018-10-06T05:57:03.169Z,72.40
2018-10-06T05:59:37.870Z,72.80
2018-10-06T06:02:09.040Z,73.30
2018-10-06T06:04:48.643Z,73.80
2018-10-06T06:07:20.212Z,73.80
2018-10-06T06:09:50.690Z,74.40
2018-10-06T06:12:21.897Z,74.20
2018-10-06T06:14:52.257Z,74.70
2018-10-06T06:17:22.498Z,74.10
2018-10-06T06:19:55.147Z,73.70
2018-10-06T06:22:27.266Z,73.60
2018-10-06T06:24:58.116Z,73.80
2018-10-06T06:27:30.416Z,73.60
2018-10-06T06:30:02.327Z,72.50
2018-10-06T06:32:34.047Z,72.30
2018-10-06T06:35:06.327Z,72.50
2018-10-06T06:37:36.747Z,72.10
2018-10-06T06:40:09.196Z,71.50
2018-10-06T06:42:39.428Z,71.80
2018-10-06T06:45:11.732Z,71.40
2018-10-06T06:47:43.339Z,69.90
2018-10-06T06:50:13.159Z,69.90
2018-10-06T06:52:44.254Z,69.60
2018-10-06T06:55:15.869Z,67.40
2018-10-06T06:57:47.835Z,64.30
2018-10-06T07:00:17.760Z,61.30
2018-10-06T07:02:48.900Z,60.60
2018-10-06T07:05:28.133Z,60.30
2018-10-06T07:08:00.003Z,59.80
2018-10-06T07:10:29.987Z,58.20
2018-10-06T07:13:01.143Z,58.20
2018-10-06T07:15:32.456Z,59.00
2018-10-06T07:18:03.911Z,59.00
2018-10-06T07:20:35.265Z,60.60
2018-10-06T07:23:07.291Z,60.00
2018-10-06T07:25:37.630Z,60.00
2018-10-06T07:28:07.900Z,60.00
2018-10-06T07:30:38.398Z,60.50
2018-10-06T07:33:10.257Z,61.40
2018-10-06T07:35:41.967Z,60.90
2018-10-06T07:38:13.321Z,61.00
2018-10-06T07:40:44.318Z,60.30
2018-10-06T07:43:14.367Z,60.70
2018-10-06T07:45:44.487Z,62.20
2018-10-06T07:48:16.218Z,63.00
2018-10-06T07:50:48.709Z,63.70
2018-10-06T07:53:20.058Z,62.60
2018-10-06T07:55:52.244Z,63.10
2018-10-06T07:58:31.516Z,64.20
2018-10-06T08:01:10.970Z,63.60
2018-10-06T08:03:42.040Z,64.00
2018-10-06T08:06:15.634Z,63.90
2018-10-06T08:08:47.120Z,64.20
2018-10-06T08:11:17.249Z,65.40
2018-10-06T08:13:47.189Z,65.80
2018-10-06T08:16:18.820Z,64.70
2018-10-06T08:18:50.219Z,64.20
2018-10-06T08:21:21.558Z,63.90
2018-10-06T08:23:52.921Z,63.10
2018-10-06T08:26:23.827Z,63.40
2018-10-06T08:28:56.377Z,64.30
2018-10-06T08:31:28.018Z,64.10
2018-10-06T08:33:59.937Z,63.20
2018-10-06T08:36:31.897Z,61.50
2018-10-06T08:39:06.268Z,60.60
2018-10-06T08:41:40.217Z,59.50
2018-10-06T08:44:23.670Z,59.60
2018-10-06T08:47:10.819Z,59.60
2018-10-06T08:50:14.909Z,60.70
2018-10-06T08:53:27.219Z,60.70
2018-10-06T09:03:03.835Z,60.20
2018-10-06T09:12:49.015Z,60.90
2018-10-06T09:15:20.844Z,60.20
2018-10-06T09:17:55.488Z,59.50
2018-10-06T09:20:27.485Z,59.20
2018-10-06T09:23:00.575Z,58.80
2018-10-06T09:25:40.417Z,58.40
2018-10-06T09:28:11.146Z,57.60
2018-10-06T09:30:46.800Z,56.60
2018-10-06T09:33:25.702Z,56.60
2018-10-06T09:35:55.922Z,56.40
2018-10-06T09:38:27.291Z,55.00
2018-10-06T09:40:59.250Z,55.10
2018-10-06T09:43:30.881Z,55.10
2018-10-06T09:46:07.363Z,54.20
2018-10-06T09:48:46.521Z,54.00
2018-10-06T09:51:26.084Z,54.10
2018-10-06T09:54:05.054Z,53.20
2018-10-06T09:56:41.219Z,53.80
2018-10-06T09:59:17.947Z,55.30
2018-10-06T10:03:02.741Z,54.70
2018-10-06T10:05:46.715Z,54.90
2018-10-06T10:08:22.924Z,55.20
2018-10-06T10:11:00.670Z,56.10
2018-10-06T10:13:40.036Z,56.10
2018-10-06T10:16:17.048Z,55.40
2018-10-06T10:18:57.369Z,55.00
2018-10-06T10:21:33.784Z,55.40
2018-10-06T10:24:08.630Z,54.20
2018-10-06T10:26:46.163Z,54.20
2018-10-06T10:29:21.425Z,55.60
2018-10-06T10:31:57.613Z,55.20
2018-10-06T10:34:30.652Z,53.70
2018-10-06T10:37:03.402Z,52.20
2018-10-06T10:39:41.304Z,51.90
2018-10-06T10:42:19.157Z,53.20
2018-10-06T10:44:56.788Z,55.10
2018-10-06T10:47:30.188Z,54.00
2018-10-06T10:50:06.679Z,54.60
2018-10-06T10:52:40.138Z,55.70
2018-10-06T10:55:16.403Z,55.10
2018-10-06T10:57:49.110Z,54.90
2018-10-06T11:00:22.832Z,54.40
2018-10-06T11:02:57.659Z,52.90
2018-10-06T11:05:33.231Z,51.80
2018-10-06T11:08:12.570Z,52.20
2018-10-06T11:10:53.451Z,53.10
2018-10-06T11:13:30.667Z,54.70
2018-10-06T11:16:06.852Z,54.70
2018-10-06T11:18:43.976Z,56.10
2018-10-06T11:21:19.387Z,57.60
2018-10-06T11:23:53.617Z,56.10
2018-10-06T11:26:27.628Z,56.20
2018-10-06T11:28:59.935Z,54.00
2018-10-06T11:31:35.010Z,54.00
2018-10-06T11:34:07.939Z,54.20
2018-10-06T11:36:49.819Z,54.90
2018-10-06T11:39:29.638Z,55.30
2018-10-06T11:42:09.460Z,55.90
2018-10-06T11:44:51.340Z,55.90
2018-10-06T11:47:28.799Z,56.40
2018-10-06T11:51:09.168Z,56.30
2018-10-06T11:53:49.593Z,57.70
2018-10-06T11:56:30.134Z,57.30
2018-10-06T11:59:12.180Z,56.50
2018-10-06T12:01:58.442Z,57.40
2018-10-06T12:04:35.664Z,58.10
2018-10-06T12:07:14.748Z,58.90
2018-10-06T12:10:00.187Z,57.50
2018-10-06T12:12:33.257Z,57.00
2018-10-06T12:15:07.617Z,58.60
2018-10-06T12:17:48.898Z,58.80
2018-10-06T12:20:29.424Z,57.50
2018-10-06T12:23:15.999Z,57.40
2018-10-06T12:25:56.299Z,56.50
2018-10-06T12:28:35.639Z,55.10
2018-10-06T12:31:17.935Z,55.40
2018-10-06T12:33:57.153Z,54.00
2018-10-06T12:36:37.680Z,52.90
2018-10-06T12:39:13.401Z,53.20
2018-10-06T12:41:55.223Z,53.80
2018-10-06T12:44:36.143Z,52.50
2018-10-06T12:47:19.503Z,53.30
2018-10-06T12:50:02.134Z,53.90
2018-10-06T12:53:47.225Z,53.70
2018-10-06T12:56:27.626Z,53.60
2018-10-06T12:59:02.457Z,53.20
2018-10-06T13:01:43.038Z,54.20
2018-10-06T13:04:15.307Z,53.70
2018-10-06T13:06:46.177Z,53.90
2018-10-06T13:09:16.767Z,54.50
2018-10-06T13:11:47.776Z,54.00
2018-10-06T13:14:23.017Z,54.20
2018-10-06T13:16:53.661Z,55.10
2018-10-06T13:19:24.037Z,55.80
2018-10-06T13:21:55.488Z,56.00
2018-10-06T13:24:27.908Z,56.00
2018-10-06T13:26:57.979Z,56.20
2018-10-06T13:29:30.784Z,56.90
2018-10-06T13:32:02.001Z,57.80
2018-10-06T13:34:34.568Z,58.10
2018-10-06T13:37:06.347Z,58.30
2018-10-06T13:39:40.248Z,57.70
2018-10-06T13:42:11.788Z,58.10
2018-10-06T13:44:43.738Z,58.60
2018-10-06T13:47:22.766Z,59.00
2018-10-06T13:49:56.585Z,58.40
2018-10-06T13:52:36.481Z,59.10
2018-10-06T13:55:15.452Z,59.50
2018-10-06T13:58:03.776Z,59.20
2018-10-06T14:00:36.115Z,59.00
2018-10-06T14:03:07.815Z,58.50
2018-10-06T14:08:54.015Z,58.50
2018-10-06T14:11:25.788Z,59.60
2018-10-06T14:13:57.895Z,59.70
2018-10-06T14:16:29.376Z,59.00
2018-10-06T14:19:01.746Z,58.80
2018-10-06T14:21:37.395Z,58.20
2018-10-06T14:24:17.141Z,58.40
2018-10-06T14:26:48.950Z,58.30
2018-10-06T14:29:21.342Z,58.70
2018-10-06T14:31:53.059Z,58.10
2018-10-06T14:34:23.846Z,56.80
2018-10-06T14:36:57.634Z,57.70
2018-10-06T14:39:38.695Z,56.80
2018-10-06T14:42:09.438Z,55.70
2018-10-06T14:44:39.634Z,55.70
2018-10-06T14:47:10.138Z,57.10
2018-10-06T14:49:42.351Z,57.70
2018-10-06T14:52:18.626Z,58.50
2018-10-06T14:54:53.223Z,58.20
2018-10-06T14:57:24.931Z,57.10
2018-10-06T15:00:06.251Z,57.40
2018-10-06T15:02:37.792Z,57.30
2018-10-06T15:05:08.710Z,56.50
2018-10-06T15:07:39.232Z,57.40
2018-10-06T15:10:18.605Z,57.30
2018-10-06T15:12:50.266Z,58.10
2018-10-06T15:15:22.296Z,58.50
2018-10-06T15:17:52.736Z,58.90
2018-10-06T15:20:24.285Z,59.20
2018-10-06T15:22:55.306Z,58.80
2018-10-06T15:25:26.936Z,58.80
2018-10-06T15:27:57.701Z,59.40
2018-10-06T15:30:29.400Z,60.50
2018-10-06T15:33:00.751Z,61.90
2018-10-06T15:35:39.885Z,62.20
2018-10-06T15:38:11.507Z,62.90
2018-10-06T15:40:43.399Z,63.10
2018-10-06T15:43:22.368Z,63.50
2018-10-06T15:46:01.806Z,63.10
2018-10-06T15:48:40.948Z,63.00
2018-10-06T15:51:13.169Z,63.00
2018-10-06T15:53:44.238Z,63.00
2018-10-06T15:56:14.522Z,63.10
2018-10-06T15:58:46.277Z,63.40
2018-10-06T16:01:25.440Z,64.50
2018-10-06T16:03:57.260Z,64.20
2018-10-06T16:06:30.211Z,64.70
2018-10-06T16:09:02.431Z,65.40
2018-10-06T16:11:38.842Z,66.20
2018-10-06T16:14:10.611Z,65.70
2018-10-06T16:16:42.772Z,65.10
2018-10-06T16:19:13.364Z,65.10
2018-10-06T16:21:43.873Z,65.20
2018-10-06T16:24:16.191Z,65.80
2018-10-06T16:26:47.651Z,66.70
2018-10-06T16:29:17.865Z,67.70
2018-10-06T16:31:48.235Z,68.80
2018-10-06T16:34:19.455Z,69.50
2018-10-06T16:36:49.633Z,70.00
2018-10-06T16:39:21.484Z,70.40
2018-10-06T16:41:56.704Z,70.50
2018-10-06T16:44:26.654Z,70.00
2018-10-06T16:46:56.777Z,69.90
2018-10-06T16:49:28.265Z,70.20
2018-10-06T16:52:00.275Z,71.40
2018-10-06T16:54:32.098Z,71.70
2018-10-06T16:57:02.474Z,72.00
2018-10-06T16:59:32.637Z,72.60
2018-10-06T17:02:02.696Z,72.90
2018-10-06T17:04:34.515Z,71.30
2018-10-06T17:07:12.091Z,71.30
2018-10-06T17:09:43.009Z,71.40
2018-10-06T17:12:15.028Z,72.00
2018-10-06T17:14:45.009Z,72.20
2018-10-06T17:17:15.148Z,72.40
2018-10-06T17:19:45.821Z,72.70
2018-10-06T17:22:16.209Z,73.30
2018-10-06T17:24:47.559Z,73.60
2018-10-06T17:27:18.178Z,73.60
2018-10-06T17:29:48.787Z,73.90
2018-10-06T17:32:19.416Z,74.00
2018-10-06T17:34:50.728Z,74.50
2018-10-06T17:37:22.384Z,74.70
2018-10-06T17:39:54.278Z,75.40
2018-10-06T17:42:38.161Z,75.60
2018-10-06T17:45:18.860Z,75.40
2018-10-06T17:47:49.348Z,74.90
2018-10-06T17:50:21.956Z,75.40
2018-10-06T17:52:58.092Z,75.00
2018-10-06T17:55:31.967Z,75.00
2018-10-06T17:58:02.138Z,75.00
2018-10-06T18:00:39.498Z,75.00
2018-10-06T18:03:16.047Z,75.10
2018-10-06T18:05:51.908Z,75.10
2018-10-06T18:08:26.527Z,75.20
2018-10-06T18:10:58.347Z,75.70
2018-10-06T18:13:33.728Z,75.90
2018-10-06T18:16:07.207Z,76.20
2018-10-06T18:18:46.690Z,76.30
2018-10-06T18:21:19.349Z,76.20
2018-10-06T18:23:51.678Z,76.30
2018-10-06T18:26:24.336Z,76.20
2018-10-06T18:30:01.688Z,75.90
2018-10-06T18:32:35.781Z,76.10
2018-10-06T18:35:10.758Z,76.30
2018-10-06T18:37:46.352Z,76.40
2018-10-06T18:40:22.188Z,76.60
2018-10-06T18:42:56.633Z,76.80
2018-10-06T18:45:27.998Z,76.60
2018-10-06T18:47:59.588Z,76.70
2018-10-06T18:50:30.609Z,77.00
2018-10-06T18:53:00.828Z,76.80
2018-10-06T18:55:36.238Z,76.90
2018-10-06T18:58:11.099Z,77.00
2018-10-06T19:00:50.652Z,76.90
2018-10-06T19:03:25.286Z,77.20
2018-10-06T19:06:04.589Z,77.00
2018-10-06T19:08:43.128Z,77.10
2018-10-06T19:11:16.897Z,77.40
2018-10-06T19:14:02.492Z,77.60
2018-10-06T19:16:37.349Z,77.60
2018-10-06T19:19:16.420Z,77.20
2018-10-06T19:21:47.227Z,77.40
2018-10-06T19:24:19.637Z,77.30
2018-10-06T19:26:56.791Z,77.80
2018-10-06T19:29:35.772Z,77.90
2018-10-06T19:32:10.351Z,77.70
2018-10-06T19:34:48.879Z,77.60
2018-10-06T19:37:22.129Z,77.40
2018-10-06T19:39:59.710Z,77.50
2018-10-06T19:45:43.293Z,77.70
2018-10-06T19:48:28.949Z,78.00
2018-10-06T19:51:12.348Z,78.10
2018-10-06T19:53:55.489Z,78.10
2018-10-06T19:56:32.140Z,77.90
2018-10-06T19:59:09.960Z,78.70
2018-10-06T20:01:41.938Z,78.50
2018-10-06T20:04:13.374Z,78.50
2018-10-06T20:06:44.509Z,78.40
2018-10-06T20:09:14.890Z,78.70
2018-10-06T20:11:45.029Z,79.00
2018-10-06T20:14:16.300Z,78.80
2018-10-06T20:16:46.799Z,78.60
2018-10-06T20:19:17.669Z,78.90
2018-10-06T20:21:47.950Z,78.90
2018-10-06T20:24:18.009Z,78.70
2018-10-06T20:26:48.263Z,78.80
2018-10-06T20:29:18.898Z,78.70
2018-10-06T20:31:49.790Z,78.70
2018-10-06T20:34:21.088Z,78.80
2018-10-06T20:36:52.609Z,78.90
2018-10-06T20:39:24.188Z,79.10
2018-10-06T20:41:58.009Z,79.00
2018-10-06T20:44:32.941Z,78.90
2018-10-06T20:47:09.882Z,78.60
2018-10-06T20:49:41.868Z,78.40
2018-10-06T20:52:15.579Z,78.60
2018-10-06T20:54:53.718Z,78.70
2018-10-06T20:57:29.139Z,78.80
2018-10-06T21:00:02.530Z,78.90
2018-10-06T21:02:38.488Z,79.00
2018-10-06T21:05:11.365Z,79.10
2018-10-06T21:07:48.339Z,79.10
2018-10-06T21:10:25.699Z,79.10
2018-10-06T21:13:07.449Z,79.30
2018-10-06T21:15:40.718Z,79.50
2018-10-06T21:18:16.276Z,79.50
2018-10-06T21:20:49.552Z,79.50
2018-10-06T21:23:22.259Z,79.50
2018-10-06T21:25:52.639Z,79.60
2018-10-06T21:28:23.021Z,79.60
2018-10-06T21:30:54.640Z,79.70
2018-10-06T21:33:24.540Z,79.70
2018-10-06T21:35:56.774Z,79.90
2018-10-06T21:38:26.819Z,80.10
2018-10-06T21:41:01.973Z,80.30
2018-10-06T21:43:33.639Z,80.50
2018-10-06T21:46:07.059Z,80.60
2018-10-06T21:48:41.059Z,80.50
2018-10-06T21:51:18.336Z,80.50
2018-10-06T21:53:48.936Z,80.70
2018-10-06T21:56:21.069Z,80.80
2018-10-06T21:58:52.789Z,80.70
2018-10-06T22:01:24.498Z,80.90
2018-10-06T22:03:55.570Z,81.10
2018-10-06T22:06:26.979Z,81.00
2018-10-06T22:08:58.788Z,80.90
2018-10-06T22:11:30.939Z,80.80
2018-10-06T22:14:02.098Z,80.80
2018-10-06T22:16:33.798Z,81.00
2018-10-06T22:19:04.868Z,80.80
2018-10-06T22:21:36.438Z,80.60
2018-10-06T22:24:10.548Z,80.70
2018-10-06T22:26:41.618Z,80.80
2018-10-06T22:29:13.077Z,81.40
2018-10-06T22:31:44.899Z,80.80
2018-10-06T22:34:16.493Z,81.20
2018-10-06T22:36:47.652Z,81.10
2018-10-06T22:39:19.353Z,81.10
2018-10-06T22:41:50.601Z,81.20
2018-10-06T22:44:22.482Z,81.30
2018-10-06T22:46:54.122Z,81.30
2018-10-06T22:49:25.892Z,81.40
2018-10-06T22:51:57.071Z,81.40
2018-10-06T22:54:28.541Z,81.30
2018-10-06T22:56:59.017Z,81.00
2018-10-06T22:59:31.021Z,81.70
2018-10-06T23:08:22.160Z,82.60
2018-10-06T23:10:53.341Z,83.40
2018-10-06T23:13:23.121Z,83.70
2018-10-06T23:15:54.762Z,84.60
2018-10-06T23:18:26.102Z,85.10
2018-10-06T23:20:58.069Z,85.00
2018-10-06T23:23:29.471Z,85.10
2018-10-06T23:26:01.247Z,85.30
2018-10-06T23:28:32.972Z,85.20
2018-10-06T23:33:28.927Z,86.00
2018-10-06T23:35:58.847Z,86.40
2018-10-06T23:38:30.646Z,86.70
2018-10-06T23:41:03.007Z,86.70
2018-10-06T23:43:32.897Z,85.40
2018-10-06T23:46:04.623Z,84.70
2018-10-06T23:48:36.617Z,84.90
2018-10-06T23:51:08.076Z,85.20
2018-10-06T23:53:38.487Z,85.40
2018-10-06T23:56:08.617Z,85.50
2018-10-06T23:58:38.879Z,85.90
